EGNX/EMA METAR and TAF weather

Enter ICAO airport designator
Station Type Date Time Source
EGNX METAR 2019/04/19 22:50 UTC NOAA

EGNX 192250Z 05006KT CAVOK 10/05 Q1032


Station Type Date Time Source
EGNX Decoded METAR 2019/04/19 22:50 UTC NOAA

East Midlands, United Kingdom (EGNX) 52-50N 001-20W
Apr 19, 2019 - 06:50 PM EDT / 2019.04.19 2250 UTC
Wind: from the NE (050 degrees) at 7 MPH (6 KT):0
Visibility: greater than 7 mile(s):0
Temperature: 50 F (10 C)
Dew Point: 41 F (5 C)
Relative Humidity: 71%
Pressure (altimeter): 30.47 in. Hg (1032 hPa)
ob: EGNX 192250Z 05006KT CAVOK 10/05 Q1032
cycle: 23

Station Type Date Time Source
EGNX TAF 2019/04/19 18:06 UTC NOAA

TAF EGNX 191653Z 1918/2018 07006KT CAVOK
BECMG 1923/2002 5000 HZ PROB40 2002/2009 2000 BR
BECMG 2010/2013 CAVOK

Example: see airport list